createdAt,value
2024-03-01T00:01:11.797Z,24.10
2024-03-01T00:03:39.835Z,27.30
2024-03-01T00:06:07.828Z,26.40
2024-03-01T00:08:34.601Z,26.27
2024-03-01T00:11:02.157Z,27.07
2024-03-01T00:13:30.781Z,24.97
2024-03-01T00:15:59.906Z,25.90
2024-03-01T00:18:28.525Z,26.57
2024-03-01T00:20:55.903Z,27.40
2024-03-01T00:23:22.981Z,28.37
2024-03-01T00:25:51.387Z,29.07
2024-03-01T00:28:18.722Z,28.27
2024-03-01T00:30:46.521Z,26.77
2024-03-01T00:33:13.879Z,25.37
2024-03-01T00:35:41.801Z,29.97
2024-03-01T00:38:08.705Z,30.03
2024-03-01T00:40:36.067Z,27.70
2024-03-01T00:43:03.703Z,30.73
2024-03-01T00:45:30.960Z,28.07
2024-03-01T00:47:59.366Z,28.60
2024-03-01T00:50:26.437Z,29.50
2024-03-01T00:52:53.652Z,30.27
2024-03-01T00:55:20.852Z,29.17
2024-03-01T00:57:48.157Z,27.73
2024-03-01T01:00:16.339Z,27.10
2024-03-01T01:02:44.078Z,26.90
2024-03-01T01:05:11.916Z,29.13
2024-03-01T01:07:40.003Z,28.77
2024-03-01T01:10:08.913Z,31.63
2024-03-01T01:12:37.229Z,30.20
2024-03-01T01:15:05.469Z,27.47
2024-03-01T01:17:33.655Z,26.40
2024-03-01T01:20:01.176Z,28.23
2024-03-01T01:22:28.651Z,27.77
2024-03-01T01:24:55.880Z,27.27
2024-03-01T01:27:22.952Z,30.93
2024-03-01T01:29:49.940Z,31.10
2024-03-01T01:32:16.914Z,29.80
2024-03-01T01:34:44.289Z,29.87
2024-03-01T01:37:11.832Z,28.60
2024-03-01T01:39:38.759Z,30.20
2024-03-01T01:42:06.220Z,28.67
2024-03-01T01:44:34.027Z,27.37
2024-03-01T01:47:01.504Z,27.03
2024-03-01T01:49:31.126Z,28.90
2024-03-01T01:51:59.842Z,29.90
2024-03-01T01:54:27.565Z,28.13
2024-03-01T01:56:55.220Z,28.10
2024-03-01T01:59:24.290Z,30.90
2024-03-01T02:01:52.772Z,27.37
2024-03-01T02:04:20.123Z,27.90
2024-03-01T02:06:47.495Z,29.13
2024-03-01T02:09:14.825Z,28.03
2024-03-01T02:11:42.596Z,25.97
2024-03-01T02:14:11.141Z,25.77
2024-03-01T02:16:38.981Z,28.67
2024-03-01T02:19:08.838Z,26.80
2024-03-01T02:21:36.690Z,26.07
2024-03-01T02:24:06.152Z,29.37
2024-03-01T02:26:34.448Z,26.50
2024-03-01T02:29:03.280Z,26.03
2024-03-01T02:31:30.934Z,29.13
2024-03-01T02:33:59.464Z,27.47
2024-03-01T02:36:26.824Z,29.23
2024-03-01T02:38:54.473Z,30.53
2024-03-01T02:41:21.899Z,29.70
2024-03-01T02:43:48.920Z,32.17
2024-03-01T02:46:16.225Z,29.93
2024-03-01T02:48:43.516Z,31.57
2024-03-01T02:51:10.723Z,29.83
2024-03-01T02:53:37.867Z,29.20
2024-03-01T02:56:05.220Z,30.00
2024-03-01T02:58:33.027Z,27.50
2024-03-01T03:01:00.703Z,30.23
2024-03-01T03:03:28.137Z,25.80
2024-03-01T03:05:55.407Z,26.57
2024-03-01T03:08:24.137Z,26.60
2024-03-01T03:10:51.169Z,25.03
2024-03-01T03:13:19.374Z,25.10
2024-03-01T03:15:46.870Z,26.93
2024-03-01T03:18:14.030Z,25.00
2024-03-01T03:20:41.868Z,24.00
2024-03-01T03:23:09.964Z,24.53
2024-03-01T03:25:37.891Z,26.47
2024-03-01T03:28:05.208Z,26.00
2024-03-01T03:30:33.296Z,23.90
2024-03-01T03:33:00.927Z,26.30
2024-03-01T03:35:28.033Z,23.77
2024-03-01T03:37:54.959Z,27.10
2024-03-01T03:40:23.021Z,25.63
2024-03-01T03:42:50.174Z,24.23
2024-03-01T03:45:18.788Z,23.90
2024-03-01T03:47:47.589Z,26.83
2024-03-01T03:50:14.814Z,26.40
2024-03-01T03:52:43.226Z,25.43
2024-03-01T03:55:10.792Z,27.07
2024-03-01T03:57:40.726Z,24.33
2024-03-01T04:00:11.585Z,29.77
2024-03-01T04:02:39.113Z,28.40
2024-03-01T04:05:08.365Z,30.33
2024-03-01T04:07:37.413Z,28.50
2024-03-01T04:10:10.836Z,29.13
2024-03-01T04:12:38.249Z,30.33
2024-03-01T04:15:08.350Z,28.80
2024-03-01T04:17:35.773Z,30.97
2024-03-01T04:20:07.492Z,32.27
2024-03-01T04:22:36.021Z,30.77
2024-03-01T04:25:04.858Z,31.63
2024-03-01T04:27:32.476Z,27.63
2024-03-01T04:30:01.185Z,28.23
2024-03-01T04:32:29.914Z,26.73
2024-03-01T04:34:58.187Z,27.73
2024-03-01T04:37:25.295Z,32.63
2024-03-01T04:39:52.489Z,30.93
2024-03-01T04:42:19.832Z,28.87
2024-03-01T04:44:47.613Z,31.23
2024-03-01T04:47:15.169Z,31.50
2024-03-01T04:49:45.749Z,29.53
2024-03-01T04:52:13.097Z,31.90
2024-03-01T04:54:40.156Z,31.33
2024-03-01T04:57:09.620Z,27.83
2024-03-01T04:59:40.962Z,28.80
2024-03-01T05:02:10.708Z,30.87
2024-03-01T05:04:42.469Z,32.03
2024-03-01T05:07:13.725Z,30.00
2024-03-01T05:09:44.585Z,30.03
2024-03-01T05:12:15.284Z,32.63
2024-03-01T05:14:43.014Z,30.43
2024-03-01T05:17:11.551Z,30.70
2024-03-01T05:19:42.066Z,27.40
2024-03-01T05:22:14.409Z,30.33
2024-03-01T05:24:41.887Z,28.70
2024-03-01T05:27:15.672Z,30.40
2024-03-01T05:29:44.943Z,30.87
2024-03-01T05:32:11.820Z,27.83
2024-03-01T05:34:38.801Z,28.77
2024-03-01T05:37:05.622Z,28.33
2024-03-01T05:39:32.740Z,28.40
2024-03-01T05:42:00.365Z,27.70
2024-03-01T05:44:28.249Z,31.33
2024-03-01T05:46:58.836Z,31.60
2024-03-01T05:49:26.556Z,33.03
2024-03-01T05:51:56.478Z,32.47
2024-03-01T05:54:25.278Z,30.20
2024-03-01T05:56:52.662Z,29.20
2024-03-01T05:59:24.368Z,29.80
2024-03-01T06:01:55.750Z,29.10
2024-03-01T06:04:23.123Z,30.10
2024-03-01T06:06:50.448Z,31.53
2024-03-01T06:12:08.538Z,28.83
2024-03-01T06:14:36.933Z,31.00
2024-03-01T06:17:04.684Z,27.90
2024-03-01T06:19:36.868Z,28.47
2024-03-01T06:22:04.969Z,28.97
2024-03-01T06:24:31.901Z,27.50
2024-03-01T06:27:00.299Z,32.30
2024-03-01T06:29:29.491Z,29.20
2024-03-01T06:31:56.853Z,30.47
2024-03-01T06:34:25.140Z,29.73
2024-03-01T06:36:53.224Z,30.00
2024-03-01T06:39:20.528Z,31.93
2024-03-01T06:41:47.315Z,33.27
2024-03-01T06:44:17.051Z,34.10
2024-03-01T06:46:44.169Z,36.83
2024-03-01T06:49:11.966Z,35.80
2024-03-01T06:51:39.237Z,35.13
2024-03-01T06:54:08.488Z,36.17
2024-03-01T06:56:41.588Z,35.53
2024-03-01T06:59:09.333Z,32.93
2024-03-01T07:01:36.643Z,36.03
2024-03-01T07:04:03.788Z,34.47
2024-03-01T07:06:33.227Z,33.30
2024-03-01T07:09:03.914Z,33.90
2024-03-01T07:11:30.694Z,32.67
2024-03-01T07:14:00.110Z,33.50
2024-03-01T07:16:34.342Z,31.87
2024-03-01T07:19:01.858Z,32.53
2024-03-01T07:21:28.456Z,32.30
2024-03-01T07:23:57.376Z,30.10
2024-03-01T07:26:24.786Z,30.17
2024-03-01T07:28:52.249Z,30.80
2024-03-01T07:31:18.987Z,27.70
2024-03-01T07:33:48.404Z,29.83
2024-03-01T07:36:15.091Z,27.60
2024-03-01T07:38:41.764Z,27.67
2024-03-01T07:41:08.429Z,27.13
2024-03-01T07:43:35.660Z,25.40
2024-03-01T07:46:02.457Z,27.43
2024-03-01T07:48:30.536Z,25.40
2024-03-01T07:50:57.513Z,25.67
2024-03-01T07:53:24.666Z,25.53
2024-03-01T07:55:55.307Z,26.73
2024-03-01T07:58:23.037Z,25.83
2024-03-01T08:00:53.370Z,24.37
2024-03-01T08:03:21.197Z,24.73
2024-03-01T08:05:55.878Z,24.77
2024-03-01T08:08:41.565Z,23.77
2024-03-01T08:11:10.048Z,24.13
2024-03-01T08:13:37.168Z,37.53
2024-03-01T08:16:11.712Z,22.97
2024-03-01T08:18:39.426Z,23.97
2024-03-01T08:21:08.870Z,26.03
2024-03-01T08:23:41.498Z,25.93
2024-03-01T08:26:14.617Z,23.90
2024-03-01T08:28:44.078Z,23.53
2024-03-01T08:31:37.813Z,23.50
2024-03-01T08:34:08.051Z,22.83
2024-03-01T08:36:35.810Z,23.53
2024-03-01T08:39:14.215Z,23.53
2024-03-01T08:41:42.724Z,26.27
2024-03-01T08:44:28.405Z,23.53
2024-03-01T08:46:56.263Z,22.70
2024-03-01T08:49:45.566Z,23.67
2024-03-01T08:52:22.024Z,22.97
2024-03-01T08:54:50.625Z,23.13
2024-03-01T08:57:26.857Z,22.60
2024-03-01T08:59:54.766Z,23.90
2024-03-01T09:02:43.127Z,25.63
2024-03-01T09:05:11.195Z,23.40
2024-03-01T09:07:38.720Z,21.50
2024-03-01T09:10:10.618Z,22.03
2024-03-01T09:12:41.589Z,20.67
2024-03-01T09:15:11.004Z,21.90
2024-03-01T09:17:40.756Z,23.33
2024-03-01T09:20:21.942Z,22.33
2024-03-01T09:22:50.546Z,24.73
2024-03-01T09:25:36.460Z,21.83
2024-03-01T09:28:04.250Z,23.43
2024-03-01T09:30:34.524Z,55.93
2024-03-01T09:33:02.682Z,44.13
2024-03-01T09:35:31.597Z,30.60
2024-03-01T09:37:58.847Z,23.97
2024-03-01T09:40:47.646Z,22.53
2024-03-01T09:43:21.249Z,20.90
2024-03-01T09:45:48.679Z,20.67
2024-03-01T09:48:22.293Z,22.60
2024-03-01T09:51:07.349Z,21.87
2024-03-01T09:53:37.235Z,22.13
2024-03-01T09:56:30.417Z,22.53
2024-03-01T09:59:15.841Z,21.57
2024-03-01T10:01:45.279Z,21.67
2024-03-01T10:04:32.273Z,21.60
2024-03-01T10:07:01.557Z,21.63
2024-03-01T10:09:28.882Z,21.20
2024-03-01T10:12:20.058Z,21.03
2024-03-01T10:15:03.024Z,21.60
2024-03-01T10:17:35.082Z,23.33
2024-03-01T10:20:02.365Z,23.20
2024-03-01T10:22:40.968Z,22.73
2024-03-01T10:25:24.333Z,22.80
2024-03-01T10:27:54.361Z,21.67
2024-03-01T10:30:21.896Z,23.60
2024-03-01T10:32:50.852Z,23.17
2024-03-01T10:35:22.189Z,21.83
2024-03-01T10:37:58.976Z,21.50
2024-03-01T10:40:31.860Z,24.47
2024-03-01T10:43:10.565Z,22.03
2024-03-01T10:45:47.675Z,22.40
2024-03-01T10:48:15.667Z,24.30
2024-03-01T10:50:52.233Z,22.73
2024-03-01T10:53:34.904Z,25.97
2024-03-01T10:56:07.970Z,22.23
2024-03-01T10:59:02.021Z,23.43
2024-03-01T11:01:45.465Z,21.87
2024-03-01T11:04:13.762Z,24.40
2024-03-01T11:06:45.628Z,25.47
2024-03-01T11:09:19.889Z,24.03
2024-03-01T11:12:06.038Z,24.23
2024-03-01T11:14:33.995Z,22.87
2024-03-01T11:17:03.884Z,24.00
2024-03-01T11:19:34.772Z,24.93
2024-03-01T11:22:20.976Z,24.27
2024-03-01T11:25:17.822Z,26.33
2024-03-01T11:28:07.160Z,25.17
2024-03-01T11:30:42.038Z,25.17
2024-03-01T11:33:16.519Z,25.73
2024-03-01T11:35:44.625Z,24.83
2024-03-01T11:38:30.353Z,24.83
2024-03-01T11:41:03.214Z,25.27
2024-03-01T11:43:43.414Z,24.37
2024-03-01T11:46:27.422Z,26.73
2024-03-01T11:48:54.560Z,25.90
2024-03-01T11:51:21.466Z,25.40
2024-03-01T11:53:49.446Z,29.90
2024-03-01T11:56:17.559Z,24.90
2024-03-01T11:58:45.711Z,24.77
2024-03-01T12:01:18.882Z,24.83
2024-03-01T12:04:05.495Z,28.33
2024-03-01T12:06:52.452Z,24.80
2024-03-01T12:09:39.315Z,24.47
2024-03-01T12:12:22.337Z,24.27
2024-03-01T12:14:55.340Z,24.90
2024-03-01T12:17:25.616Z,26.47
2024-03-01T12:19:55.308Z,26.07
2024-03-01T12:22:22.169Z,25.63
2024-03-01T12:24:58.403Z,24.43
2024-03-01T12:27:40.392Z,24.43
2024-03-01T12:30:14.610Z,27.03
2024-03-01T12:32:51.553Z,24.87
2024-03-01T12:35:25.198Z,28.77
2024-03-01T12:38:13.249Z,27.80
2024-03-01T12:41:01.186Z,25.83
2024-03-01T12:43:46.990Z,25.70
2024-03-01T12:46:23.139Z,28.07
2024-03-01T12:48:50.891Z,28.13
2024-03-01T12:51:18.703Z,30.07
2024-03-01T12:54:00.979Z,28.90
2024-03-01T12:56:33.701Z,32.17
2024-03-01T12:59:20.142Z,29.73
2024-03-01T13:02:02.898Z,28.87
2024-03-01T13:05:02.070Z,27.03
2024-03-01T13:07:33.512Z,26.73
2024-03-01T13:10:02.868Z,28.37
2024-03-01T13:12:38.788Z,27.87
2024-03-01T13:15:25.324Z,27.33
2024-03-01T13:18:10.754Z,28.50
2024-03-01T13:20:57.832Z,27.80
2024-03-01T13:23:44.787Z,28.30
2024-03-01T13:26:15.908Z,29.53
2024-03-01T13:28:49.533Z,27.97
2024-03-01T13:31:23.149Z,30.40
2024-03-01T13:33:54.434Z,30.03
2024-03-01T13:36:29.767Z,28.93
2024-03-01T13:39:17.036Z,30.70
2024-03-01T13:42:07.968Z,29.53
2024-03-01T13:44:38.283Z,29.50
2024-03-01T13:47:19.594Z,30.17
2024-03-01T13:49:50.564Z,28.87
2024-03-01T13:52:17.922Z,29.37
2024-03-01T13:54:47.988Z,30.90
2024-03-01T13:57:22.667Z,30.57
2024-03-01T13:59:54.799Z,31.17
2024-03-01T14:02:29.217Z,30.97
2024-03-01T14:05:03.047Z,29.70
2024-03-01T14:07:30.163Z,29.17
2024-03-01T14:09:59.211Z,29.00
2024-03-01T14:12:26.961Z,28.90
2024-03-01T14:14:53.667Z,27.87
2024-03-01T14:17:20.418Z,28.53
2024-03-01T14:19:48.782Z,27.93
2024-03-01T14:22:21.742Z,29.70
2024-03-01T14:24:49.855Z,35.03
2024-03-01T14:27:17.112Z,47.47
2024-03-01T14:29:46.870Z,43.60
2024-03-01T14:32:16.289Z,29.27
2024-03-01T14:34:46.106Z,30.90
2024-03-01T14:37:24.688Z,32.97
2024-03-01T14:39:51.744Z,32.87
2024-03-01T14:42:24.970Z,31.10
2024-03-01T14:44:54.802Z,29.27
2024-03-01T14:47:25.509Z,31.33
2024-03-01T14:49:56.726Z,29.30
2024-03-01T14:52:24.212Z,32.70
2024-03-01T14:54:51.321Z,35.13
2024-03-01T14:57:21.277Z,32.63
2024-03-01T14:59:50.045Z,34.43
2024-03-01T15:02:20.469Z,39.03
2024-03-01T15:04:47.742Z,38.13
2024-03-01T15:07:18.907Z,38.50
2024-03-01T15:09:53.863Z,34.87
2024-03-01T15:12:21.779Z,35.63
2024-03-01T15:14:49.124Z,34.77
2024-03-01T15:17:17.518Z,35.37
2024-03-01T15:19:44.641Z,36.50
2024-03-01T15:22:15.723Z,40.33
2024-03-01T15:24:45.543Z,36.50
2024-03-01T15:27:12.666Z,37.10
2024-03-01T15:29:39.825Z,34.40
2024-03-01T15:32:07.966Z,35.13
2024-03-01T15:34:35.072Z,35.70
2024-03-01T15:37:01.862Z,36.73
2024-03-01T15:39:28.951Z,36.40
2024-03-01T15:41:56.170Z,39.17
2024-03-01T15:44:26.287Z,39.03
2024-03-01T15:46:53.209Z,36.50
2024-03-01T15:49:22.361Z,37.10
2024-03-01T15:51:51.701Z,35.53
2024-03-01T15:54:19.952Z,34.00
2024-03-01T15:56:48.205Z,33.60
2024-03-01T15:59:15.254Z,35.20
2024-03-01T16:01:42.919Z,38.00
2024-03-01T16:04:13.342Z,34.63
2024-03-01T16:06:41.942Z,32.80
2024-03-01T16:09:20.638Z,36.07
2024-03-01T16:11:51.048Z,38.80
2024-03-01T16:14:25.784Z,37.27
2024-03-01T16:16:59.225Z,38.13
2024-03-01T16:19:27.611Z,37.70
2024-03-01T16:21:57.085Z,50.87
2024-03-01T16:24:26.900Z,47.33
2024-03-01T16:27:03.439Z,43.67
2024-03-01T16:29:33.934Z,59.17
2024-03-01T16:32:01.425Z,43.33
2024-03-01T16:34:28.431Z,50.27
2024-03-01T16:36:58.741Z,42.10
2024-03-01T16:39:34.088Z,37.40
2024-03-01T16:42:06.041Z,38.20
2024-03-01T16:44:38.832Z,37.00
2024-03-01T16:47:08.604Z,39.10
2024-03-01T16:49:45.463Z,39.47
2024-03-01T16:52:21.786Z,40.53
2024-03-01T16:54:49.732Z,41.03
2024-03-01T16:57:29.521Z,39.73
2024-03-01T16:59:58.015Z,49.17
2024-03-01T17:02:32.813Z,42.73
2024-03-01T17:05:01.086Z,41.57
2024-03-01T17:07:39.553Z,41.77
2024-03-01T17:10:11.929Z,42.57
2024-03-01T17:12:39.345Z,46.57
2024-03-01T17:15:09.621Z,47.20
2024-03-01T17:17:36.703Z,38.83
2024-03-01T17:20:05.984Z,41.50
2024-03-01T17:22:35.237Z,43.00
2024-03-01T17:25:04.090Z,42.33
2024-03-01T17:27:33.365Z,41.97
2024-03-01T17:30:00.994Z,41.60
2024-03-01T17:32:31.835Z,39.57
2024-03-01T17:34:59.600Z,39.30
2024-03-01T17:37:26.853Z,45.27
2024-03-01T17:39:54.129Z,47.20
2024-03-01T17:42:23.668Z,53.10
2024-03-01T17:44:50.854Z,55.30
2024-03-01T17:47:21.149Z,51.53
2024-03-01T17:49:51.781Z,46.37
2024-03-01T17:52:22.061Z,45.83
2024-03-01T17:54:49.628Z,47.43
2024-03-01T17:57:16.546Z,44.27
2024-03-01T17:59:52.475Z,44.63
2024-03-01T18:02:21.293Z,41.83
2024-03-01T18:04:51.401Z,42.20
2024-03-01T18:07:19.453Z,44.03
2024-03-01T18:09:48.212Z,46.67
2024-03-01T18:12:17.440Z,52.83
2024-03-01T18:14:49.959Z,52.40
2024-03-01T18:17:21.105Z,60.33
2024-03-01T18:19:56.143Z,56.37
2024-03-01T18:22:23.282Z,51.30
2024-03-01T18:24:52.275Z,57.23
2024-03-01T18:27:23.391Z,50.60
2024-03-01T18:29:51.304Z,45.33
2024-03-01T18:32:19.282Z,48.00
2024-03-01T18:34:49.465Z,45.80
2024-03-01T18:37:16.553Z,49.33
2024-03-01T18:39:44.039Z,47.77
2024-03-01T18:42:11.346Z,46.93
2024-03-01T18:44:40.439Z,46.77
2024-03-01T18:47:10.853Z,48.40
2024-03-01T18:49:42.023Z,45.97
2024-03-01T18:52:10.701Z,49.90
2024-03-01T18:54:37.991Z,47.80
2024-03-01T18:57:05.462Z,47.93
2024-03-01T18:59:35.112Z,46.50
2024-03-01T19:02:05.764Z,52.30
2024-03-01T19:04:37.496Z,46.93
2024-03-01T19:07:08.553Z,48.93
2024-03-01T19:09:37.872Z,52.70
2024-03-01T19:12:08.032Z,50.40
2024-03-01T19:14:34.879Z,51.60
2024-03-01T19:17:04.210Z,55.17
2024-03-01T19:19:31.248Z,53.60
2024-03-01T19:21:58.304Z,53.53
2024-03-01T19:24:28.789Z,55.37
2024-03-01T19:26:56.708Z,60.27
2024-03-01T19:29:27.161Z,54.77
2024-03-01T19:31:56.023Z,60.30
2024-03-01T19:34:25.467Z,60.00
2024-03-01T19:36:53.150Z,63.93
2024-03-01T19:39:23.566Z,61.30
2024-03-01T19:41:51.697Z,58.47
2024-03-01T19:44:21.561Z,60.10
2024-03-01T19:46:49.473Z,51.43
2024-03-01T19:49:22.585Z,53.83
2024-03-01T19:51:50.430Z,58.03
2024-03-01T19:54:19.781Z,57.73
2024-03-01T19:56:47.682Z,57.93
2024-03-01T19:59:15.305Z,62.50
2024-03-01T20:01:44.386Z,61.90
2024-03-01T20:04:15.855Z,63.77
2024-03-01T20:06:44.354Z,59.97
2024-03-01T20:09:12.205Z,63.00
2024-03-01T20:11:40.129Z,59.13
2024-03-01T20:14:09.408Z,61.77
2024-03-01T20:16:41.237Z,61.00
2024-03-01T20:19:09.250Z,56.80
2024-03-01T20:21:51.175Z,61.07
2024-03-01T20:24:21.651Z,60.70
2024-03-01T20:26:49.850Z,64.20
2024-03-01T20:29:24.762Z,64.20
2024-03-01T20:31:57.175Z,63.93
2024-03-01T20:34:27.454Z,67.10
2024-03-01T20:36:56.393Z,63.33
2024-03-01T20:39:24.068Z,60.80
2024-03-01T20:41:51.233Z,57.30
2024-03-01T20:44:20.471Z,59.97
2024-03-01T20:46:53.208Z,58.07
2024-03-01T20:49:25.925Z,60.40
2024-03-01T20:51:53.217Z,57.57
2024-03-01T20:54:21.634Z,57.43
2024-03-01T20:56:52.072Z,57.37
2024-03-01T20:59:21.430Z,56.10
2024-03-01T21:01:50.069Z,54.93
2024-03-01T21:04:18.678Z,55.80
2024-03-01T21:06:46.917Z,56.13
2024-03-01T21:09:14.525Z,55.57
2024-03-01T21:11:41.924Z,53.60
2024-03-01T21:14:11.763Z,54.23
2024-03-01T21:16:38.830Z,56.77
2024-03-01T21:19:12.358Z,53.17
2024-03-01T21:24:11.697Z,55.43
2024-03-01T21:26:38.967Z,52.67
2024-03-01T21:29:07.490Z,49.97
2024-03-01T21:31:35.351Z,51.83
2024-03-01T21:34:05.448Z,52.33
2024-03-01T21:36:39.402Z,54.80
2024-03-01T21:39:11.958Z,51.53
2024-03-01T21:41:39.482Z,51.73
2024-03-01T21:44:07.003Z,53.77
2024-03-01T21:46:37.557Z,52.27
2024-03-01T21:49:06.606Z,51.80
2024-03-01T21:51:34.463Z,48.13
2024-03-01T21:54:01.844Z,48.83
2024-03-01T21:56:29.500Z,46.43
2024-03-01T21:58:59.270Z,45.27
2024-03-01T22:01:33.016Z,46.47
2024-03-01T22:04:01.126Z,49.83
2024-03-01T22:06:28.245Z,53.23
2024-03-01T22:09:01.186Z,53.67
2024-03-01T22:11:28.487Z,48.83
2024-03-01T22:13:55.518Z,50.13
2024-03-01T22:16:23.552Z,46.93
2024-03-01T22:18:53.095Z,49.23
2024-03-01T22:21:23.347Z,52.53
2024-03-01T22:23:54.025Z,49.27
2024-03-01T22:26:33.554Z,49.13
2024-03-01T22:29:03.430Z,47.87
2024-03-01T22:31:32.614Z,48.30
2024-03-01T22:34:00.778Z,50.17
2024-03-01T22:36:32.198Z,49.03
2024-03-01T22:39:00.977Z,47.20
2024-03-01T22:41:31.196Z,49.00
2024-03-01T22:44:01.101Z,45.23
2024-03-01T22:46:28.465Z,47.53
2024-03-01T22:48:58.097Z,45.63
2024-03-01T22:51:30.136Z,47.90
2024-03-01T22:54:03.181Z,46.03
2024-03-01T22:56:33.525Z,49.13
2024-03-01T22:59:01.770Z,47.33
2024-03-01T23:01:30.663Z,54.03
2024-03-01T23:04:01.055Z,47.10
2024-03-01T23:06:31.401Z,45.97
2024-03-01T23:09:01.472Z,45.80
2024-03-01T23:11:33.346Z,45.23
2024-03-01T23:14:13.360Z,42.10
2024-03-01T23:16:44.854Z,45.20
2024-03-01T23:19:21.004Z,43.27
2024-03-01T23:21:51.272Z,41.27
2024-03-01T23:24:21.229Z,38.47
2024-03-01T23:26:47.970Z,35.53
2024-03-01T23:29:15.007Z,36.37
2024-03-01T23:31:45.648Z,33.20
2024-03-01T23:34:18.421Z,35.30
2024-03-01T23:36:49.503Z,39.63
2024-03-01T23:39:24.427Z,40.50
2024-03-01T23:41:54.117Z,42.27
2024-03-01T23:44:24.463Z,42.90
2024-03-01T23:46:52.485Z,42.53
2024-03-01T23:49:19.744Z,43.97
2024-03-01T23:51:48.210Z,44.67
2024-03-01T23:54:15.983Z,47.20
2024-03-01T23:56:45.712Z,50.60
2024-03-01T23:59:13.385Z,42.27
